createdAt,value
2022-10-11T00:01:22.786Z,99272.03
2022-10-11T00:03:52.295Z,99265.53
2022-10-11T00:06:20.260Z,99263.97
2022-10-11T00:08:48.258Z,99274.00
2022-10-11T00:11:16.311Z,99279.22
2022-10-11T00:13:44.293Z,99276.56
2022-10-11T00:16:14.301Z,99284.56
2022-10-11T00:18:43.248Z,99261.53
2022-10-11T00:21:15.123Z,99295.66
2022-10-11T00:23:43.718Z,99282.91
2022-10-11T00:26:12.505Z,99283.25
2022-10-11T00:28:41.591Z,99294.47
2022-10-11T00:31:10.982Z,99283.44
2022-10-11T00:33:39.040Z,99286.44
2022-10-11T00:36:08.762Z,99284.34
2022-10-11T00:38:38.518Z,99280.94
2022-10-11T00:41:06.815Z,99272.94
2022-10-11T00:43:35.014Z,99276.25
2022-10-11T00:46:28.421Z,99274.66
2022-10-11T00:49:01.886Z,99285.53
2022-10-11T00:51:39.019Z,99283.00
2022-10-11T00:54:12.777Z,99283.00
2022-10-11T00:56:41.314Z,99282.91
2022-10-11T00:59:15.145Z,99236.13
2022-10-11T01:01:43.312Z,99272.59
2022-10-11T01:04:11.342Z,99268.81
2022-10-11T01:06:39.335Z,99269.53
2022-10-11T01:09:09.667Z,99266.34
2022-10-11T01:11:40.581Z,99286.50
2022-10-11T01:14:40.341Z,99281.91
2022-10-11T01:17:16.956Z,99273.50
2022-10-11T01:20:16.633Z,99289.88
2022-10-11T01:23:09.998Z,99280.66
2022-10-11T01:25:51.164Z,99286.09
2022-10-11T01:28:34.227Z,99281.47
2022-10-11T01:31:11.547Z,99276.91
2022-10-11T01:33:44.491Z,99287.34
2022-10-11T01:36:17.524Z,99274.09
2022-10-11T01:38:50.976Z,99278.13
2022-10-11T01:41:25.127Z,99262.00
2022-10-11T01:43:57.982Z,99266.81
2022-10-11T01:46:28.439Z,99265.50
2022-10-11T01:48:58.994Z,99271.56
2022-10-11T01:51:30.354Z,99272.41
2022-10-11T01:54:12.346Z,99274.94
2022-10-11T01:57:12.405Z,99252.38
2022-10-11T01:59:51.494Z,99247.25
2022-10-11T02:02:33.741Z,99271.19
2022-10-11T02:05:09.936Z,99269.09
2022-10-11T02:07:44.402Z,99264.81
2022-10-11T02:10:16.861Z,99270.16
2022-10-11T02:12:49.018Z,99246.75
2022-10-11T02:15:20.348Z,99260.50
2022-10-11T02:17:57.589Z,99261.19
2022-10-11T02:20:27.436Z,99235.22
2022-10-11T02:23:02.095Z,99248.81
2022-10-11T02:25:34.000Z,99264.59
2022-10-11T02:28:05.212Z,99243.94
2022-10-11T02:30:34.965Z,99251.50
2022-10-11T02:33:08.076Z,99251.81
2022-10-11T02:35:43.194Z,99254.63
2022-10-11T02:38:19.843Z,99192.63
2022-10-11T02:40:52.759Z,99242.19
2022-10-11T02:43:26.119Z,99245.22
2022-10-11T02:45:57.791Z,99236.69
2022-10-11T02:48:29.404Z,99259.03
2022-10-11T02:50:58.171Z,99259.03
2022-10-11T02:53:27.753Z,99269.91
2022-10-11T02:55:56.939Z,99240.00
2022-10-11T02:58:25.611Z,99265.69
2022-10-11T03:00:53.743Z,99253.72
2022-10-11T03:03:22.030Z,99256.16
2022-10-11T03:05:51.380Z,99254.75
2022-10-11T03:08:19.368Z,99247.69
2022-10-11T03:10:47.705Z,99269.31
2022-10-11T03:13:18.265Z,99265.91
2022-10-11T03:16:01.947Z,99263.09
2022-10-11T03:18:31.371Z,99256.88
2022-10-11T03:21:00.762Z,99182.03
2022-10-11T03:23:28.745Z,99265.88
2022-10-11T03:25:57.101Z,99234.25
2022-10-11T03:28:25.120Z,99244.59
2022-10-11T03:30:53.653Z,99276.00
2022-10-11T03:33:21.752Z,99277.47
2022-10-11T03:35:50.456Z,99270.94
2022-10-11T03:38:22.554Z,99264.47
2022-10-11T03:40:50.515Z,99271.66
2022-10-11T03:43:18.830Z,99277.69
2022-10-11T03:45:46.870Z,99279.72
2022-10-11T03:48:14.879Z,99258.66
2022-10-11T03:50:42.878Z,99280.47
2022-10-11T03:53:10.865Z,99282.78
2022-10-11T03:55:41.285Z,99287.88
2022-10-11T03:58:09.624Z,99290.56
2022-10-11T04:00:38.227Z,99294.84
2022-10-11T04:03:06.286Z,99281.88
2022-10-11T04:05:34.316Z,99285.84
2022-10-11T04:08:02.363Z,99277.75
2022-10-11T04:10:31.161Z,99273.63
2022-10-11T04:13:00.627Z,99285.50
2022-10-11T04:15:28.573Z,99292.66
2022-10-11T04:17:56.521Z,99286.13
2022-10-11T04:20:24.482Z,99287.34
2022-10-11T04:22:52.527Z,99260.16
2022-10-11T04:25:20.518Z,99295.84
2022-10-11T04:27:48.693Z,99277.28
2022-10-11T04:30:18.303Z,99300.06
2022-10-11T04:32:46.382Z,99299.47
2022-10-11T04:35:14.452Z,99297.78
2022-10-11T04:37:42.441Z,99290.75
2022-10-11T04:40:11.910Z,99298.94
2022-10-11T04:42:39.872Z,99291.47
2022-10-11T04:45:09.498Z,99292.19
2022-10-11T04:47:40.529Z,99293.97
2022-10-11T04:50:08.927Z,99314.00
2022-10-11T04:52:36.962Z,99302.31
2022-10-11T04:55:05.473Z,99295.06
2022-10-11T04:57:33.847Z,99314.72
2022-10-11T05:00:01.809Z,99308.91
2022-10-11T05:02:29.839Z,99314.22
2022-10-11T05:04:59.315Z,99312.97
2022-10-11T05:07:27.309Z,99312.34
2022-10-11T05:09:55.477Z,99319.38
2022-10-11T05:12:23.465Z,99326.28
2022-10-11T05:14:51.429Z,99331.69
2022-10-11T05:17:19.427Z,99325.78
2022-10-11T05:19:47.450Z,99314.56
2022-10-11T05:22:16.970Z,99320.03
2022-10-11T05:24:44.906Z,99333.69
2022-10-11T05:27:12.899Z,99323.09
2022-10-11T05:29:40.825Z,99315.97
2022-10-11T05:32:08.792Z,99302.06
2022-10-11T05:34:36.746Z,99343.72
2022-10-11T05:37:04.714Z,99343.94
2022-10-11T05:39:34.109Z,99337.16
2022-10-11T05:42:03.187Z,99314.00
2022-10-11T05:44:32.511Z,99330.56
2022-10-11T05:47:00.453Z,99346.41
2022-10-11T05:49:28.465Z,99347.88
2022-10-11T05:51:56.369Z,99345.66
2022-10-11T05:54:24.380Z,99352.22
2022-10-11T05:56:53.730Z,99346.50
2022-10-11T05:59:21.683Z,99342.94
2022-10-11T06:01:50.617Z,99335.00
2022-10-11T06:04:19.107Z,99367.63
2022-10-11T06:06:47.171Z,99361.81
2022-10-11T06:09:15.118Z,99367.94
2022-10-11T06:11:44.197Z,99368.47
2022-10-11T06:14:13.765Z,99362.25
2022-10-11T06:16:41.747Z,99355.75
2022-10-11T06:19:09.747Z,99361.44
2022-10-11T06:21:37.732Z,99345.56
2022-10-11T06:24:06.608Z,99382.72
2022-10-11T06:26:35.073Z,99375.81
2022-10-11T06:29:06.557Z,99388.34
2022-10-11T06:31:36.736Z,99380.22
2022-10-11T06:34:05.060Z,99382.06
2022-10-11T06:36:33.198Z,99361.38
2022-10-11T06:39:01.595Z,99387.16
2022-10-11T06:41:31.338Z,99378.19
2022-10-11T06:43:59.628Z,99379.19
2022-10-11T06:46:28.989Z,99391.09
2022-10-11T06:48:58.379Z,99388.66
2022-10-11T06:51:28.715Z,99391.13
2022-10-11T06:53:58.823Z,99375.94
2022-10-11T06:56:28.315Z,99377.41
2022-10-11T06:58:57.514Z,99387.22
2022-10-11T07:01:25.965Z,99391.78
2022-10-11T07:03:55.991Z,99382.59
2022-10-11T07:06:27.785Z,99387.16
2022-10-11T07:08:55.835Z,99397.53
2022-10-11T07:11:25.637Z,99397.63
2022-10-11T07:13:58.048Z,99403.00
2022-10-11T07:16:26.449Z,99385.69
2022-10-11T07:19:15.327Z,99392.38
2022-10-11T07:21:44.730Z,99391.78
2022-10-11T07:24:12.627Z,99414.47
2022-10-11T07:26:40.963Z,99399.19
2022-10-11T07:29:10.105Z,99411.81
2022-10-11T07:31:39.651Z,99412.06
2022-10-11T07:34:07.702Z,99422.13
2022-10-11T07:36:35.595Z,99419.44
2022-10-11T07:39:07.719Z,99426.16
2022-10-11T07:41:38.151Z,99368.88
2022-10-11T07:44:08.842Z,99431.50
2022-10-11T07:46:37.007Z,99421.56
2022-10-11T07:49:04.984Z,99431.97
2022-10-11T07:54:20.973Z,99431.66
2022-10-11T07:56:48.940Z,99421.56
2022-10-11T07:59:16.936Z,99433.94
2022-10-11T08:01:45.447Z,99432.81
2022-10-11T08:04:13.499Z,99435.75
2022-10-11T08:06:41.483Z,99440.84
2022-10-11T08:09:10.397Z,99437.66
2022-10-11T08:11:40.508Z,99423.72
2022-10-11T08:16:56.636Z,99428.28
2022-10-11T08:19:24.589Z,99426.66
2022-10-11T08:21:52.585Z,99431.31
2022-10-11T08:24:21.172Z,99440.22
2022-10-11T08:43:51.155Z,99446.72
2022-10-11T08:46:25.108Z,99442.66
2022-10-11T08:48:53.772Z,99454.63
2022-10-11T08:51:26.118Z,99431.63
2022-10-11T08:54:04.710Z,99449.66
2022-10-11T08:56:38.936Z,99363.41
2022-10-11T08:59:23.141Z,99364.78
2022-10-11T09:01:57.814Z,99426.41
2022-10-11T09:04:26.124Z,99387.84
2022-10-11T09:07:05.133Z,99411.34
2022-10-11T09:09:54.544Z,99388.28
2022-10-11T09:12:34.286Z,99407.28
2022-10-11T09:15:22.330Z,99402.28
2022-10-11T09:18:12.707Z,99432.19
2022-10-11T09:21:10.501Z,99396.84
2022-10-11T09:24:27.010Z,99467.06
2022-10-11T09:30:41.790Z,99429.88
2022-10-11T09:33:18.811Z,99362.38
2022-10-11T09:35:49.955Z,99405.06
2022-10-11T09:51:44.909Z,99470.91
2022-10-11T09:52:55.297Z,99480.09
2022-10-11T09:55:53.391Z,99446.63
2022-10-11T10:37:02.453Z,99447.44
2022-10-11T10:39:58.518Z,99485.88
2022-10-11T10:42:28.655Z,99452.06
2022-10-11T10:45:00.362Z,99435.94
2022-10-11T10:47:48.363Z,99451.09
2022-10-11T10:50:20.249Z,99449.16
2022-10-11T10:52:56.367Z,99390.09
2022-10-11T10:55:38.242Z,99402.63
2022-10-11T10:58:22.947Z,99479.59
2022-10-11T11:01:00.086Z,99441.75
2022-10-11T11:10:13.829Z,99388.44
2022-10-11T11:12:50.910Z,99419.69
2022-10-11T11:15:31.241Z,99379.38
2022-10-11T11:18:20.501Z,99450.13
2022-10-11T11:21:09.432Z,99371.13
2022-10-11T11:23:45.418Z,99422.97
2022-10-11T11:26:20.419Z,99401.72
2022-10-11T11:29:07.798Z,99391.75
2022-10-11T11:31:52.009Z,99397.91
2022-10-11T11:34:25.967Z,99401.72
2022-10-11T11:36:58.131Z,99382.56
2022-10-11T11:39:32.050Z,99391.84
2022-10-11T11:42:05.920Z,99355.56
2022-10-11T11:44:39.860Z,99389.91
2022-10-11T11:47:17.911Z,99351.31
2022-10-11T11:49:50.753Z,99393.28
2022-10-11T11:52:28.157Z,99402.47
2022-10-11T11:58:22.183Z,99392.97
2022-10-11T12:00:59.809Z,99387.75
2022-10-11T12:03:41.715Z,99378.56
2022-10-11T12:06:25.595Z,99348.22
2022-10-11T12:09:04.318Z,99376.06
2022-10-11T12:11:43.626Z,99428.94
2022-10-11T12:14:19.321Z,99406.78
2022-10-11T12:17:07.350Z,99440.38
2022-10-11T12:19:38.532Z,99386.28
2022-10-11T12:22:37.516Z,99405.47
2022-10-11T12:25:39.119Z,99376.38
2022-10-11T12:28:48.833Z,99435.84
2022-10-11T12:31:24.432Z,99368.63
2022-10-11T12:34:03.911Z,99339.78
2022-10-11T12:36:41.846Z,99346.16
2022-10-11T12:39:43.644Z,99430.75
2022-10-11T13:21:00.804Z,99364.38
2022-10-11T14:33:48.354Z,99351.34
2022-10-11T14:36:16.536Z,99333.44
2022-10-11T14:38:44.799Z,99310.41
2022-10-11T14:41:12.962Z,99372.53
2022-10-11T14:43:42.466Z,99362.91
2022-10-11T14:46:20.617Z,99329.88
2022-10-11T14:48:56.846Z,99326.06
2022-10-11T14:51:29.631Z,99318.84
2022-10-11T14:53:57.772Z,99356.69
2022-10-11T14:56:26.151Z,99391.72
2022-10-11T14:58:55.840Z,99358.53
2022-10-11T15:01:24.019Z,99324.81
2022-10-11T15:03:52.362Z,99367.44
2022-10-11T15:06:22.920Z,99304.47
2022-10-11T15:08:51.958Z,99352.06
2022-10-11T15:11:22.294Z,99367.44
2022-10-11T15:13:50.787Z,99320.72
2022-10-11T15:16:22.056Z,99330.03
2022-10-11T15:18:52.104Z,99306.47
2022-10-11T15:21:21.944Z,99293.22
2022-10-11T15:23:50.863Z,99374.53
2022-10-11T15:26:21.525Z,99376.78
2022-10-11T15:28:50.378Z,99292.47
2022-10-11T15:31:19.944Z,99372.81
2022-10-11T15:33:48.671Z,99362.50
2022-10-11T15:36:18.791Z,99369.16
2022-10-11T15:38:47.262Z,99358.72
2022-10-11T15:41:16.884Z,99378.03
2022-10-11T15:43:46.898Z,99373.50
2022-10-11T15:46:17.716Z,99371.94
2022-10-11T15:48:47.917Z,99368.00
2022-10-11T15:51:15.955Z,99362.63
2022-10-11T15:53:43.945Z,99362.75
2022-10-11T15:56:17.197Z,99365.44
2022-10-11T15:58:45.610Z,99364.00
2022-10-11T16:01:16.297Z,99359.91
2022-10-11T16:03:46.925Z,99360.59
2022-10-11T16:06:15.137Z,99355.25
2022-10-11T16:08:43.257Z,99364.88
2022-10-11T16:11:12.131Z,99362.75
2022-10-11T16:13:40.496Z,99366.00
2022-10-11T16:16:10.102Z,99353.41
2022-10-11T16:18:38.602Z,99365.97
2022-10-11T16:21:10.232Z,99361.72
2022-10-11T16:23:39.073Z,99358.63
2022-10-11T16:26:10.896Z,99361.03
2022-10-11T16:28:40.051Z,99356.28
2022-10-11T16:31:09.347Z,99357.81
2022-10-11T16:34:32.827Z,99357.97
2022-10-11T16:37:02.541Z,99366.41
2022-10-11T16:39:30.894Z,99349.19
2022-10-11T16:41:58.951Z,99357.91
2022-10-11T16:44:28.008Z,99365.09
2022-10-11T16:46:56.714Z,99359.44
2022-10-11T16:49:27.694Z,99360.81
2022-10-11T16:51:59.053Z,99347.38
2022-10-11T16:54:29.556Z,99365.75
2022-10-11T16:56:58.088Z,99373.63
2022-10-11T16:59:26.143Z,99369.25
2022-10-11T17:01:54.228Z,99350.97
2022-10-11T17:04:22.451Z,99331.13
2022-10-11T17:06:51.276Z,99309.81
2022-10-11T17:09:19.435Z,99294.94
2022-10-11T17:11:49.142Z,99331.88
2022-10-11T17:14:17.690Z,99323.13
2022-10-11T17:16:46.527Z,99384.59
2022-10-11T17:19:17.036Z,99364.47
2022-10-11T17:21:45.030Z,99387.78
2022-10-11T17:24:13.304Z,99316.13
2022-10-11T17:26:42.750Z,99373.94
2022-10-11T17:29:16.262Z,99396.00
2022-10-11T17:31:48.984Z,99389.28
2022-10-11T17:34:20.401Z,99326.63
2022-10-11T17:36:49.180Z,99317.06
2022-10-11T17:39:19.271Z,99378.13
2022-10-11T17:41:47.721Z,99379.34
2022-10-11T17:44:18.943Z,99381.91
2022-10-11T17:46:47.456Z,99390.78
2022-10-11T17:49:15.816Z,99364.94
2022-10-11T17:51:43.980Z,99384.19
2022-10-11T17:54:13.271Z,99384.19
2022-10-11T17:56:42.716Z,99380.78
2022-10-11T17:59:18.598Z,99368.72
2022-10-11T18:01:46.723Z,99384.25
2022-10-11T18:04:16.938Z,99389.50
2022-10-11T18:06:46.806Z,99385.03
2022-10-11T18:09:17.508Z,99377.59
2022-10-11T18:11:45.857Z,99376.94
2022-10-11T18:14:14.083Z,99375.97
2022-10-11T18:16:43.886Z,99372.38
2022-10-11T18:19:14.406Z,99367.41
2022-10-11T18:21:42.531Z,99371.13
2022-10-11T18:24:14.973Z,99371.38
2022-10-11T18:26:43.728Z,99374.00
2022-10-11T18:29:12.678Z,99370.94
2022-10-11T18:31:40.829Z,99359.78
2022-10-11T18:34:13.935Z,99369.38
2022-10-11T18:36:41.890Z,99363.13
2022-10-11T18:39:13.446Z,99372.53
2022-10-11T18:41:44.684Z,99374.84
2022-10-11T18:44:15.225Z,99384.56
2022-10-11T18:46:44.262Z,99383.03
2022-10-11T18:49:14.637Z,99377.69
2022-10-11T18:51:43.471Z,99382.03
2022-10-11T18:54:16.735Z,99385.44
2022-10-11T18:56:48.157Z,99385.09
2022-10-11T18:59:16.207Z,99316.56
2022-10-11T19:01:45.980Z,99373.56
2022-10-11T19:04:16.958Z,99392.84
2022-10-11T19:06:48.346Z,99389.94
2022-10-11T19:09:21.624Z,99390.44
2022-10-11T19:11:50.097Z,99385.44
2022-10-11T19:14:19.755Z,99398.50
2022-10-11T19:16:51.319Z,99394.75
2022-10-11T19:19:22.747Z,99397.94
2022-10-11T19:21:51.435Z,99394.66
2022-10-11T19:24:21.194Z,99403.31
2022-10-11T19:26:49.361Z,99370.41
2022-10-11T19:29:19.901Z,99396.53
2022-10-11T19:31:51.305Z,99397.25
2022-10-11T19:34:21.287Z,99395.03
2022-10-11T19:36:50.799Z,99402.56
2022-10-11T19:39:19.786Z,99399.38
2022-10-11T19:41:47.841Z,99394.03
2022-10-11T19:44:16.398Z,99403.22
2022-10-11T19:46:51.529Z,99395.50
2022-10-11T19:49:25.109Z,99397.31
2022-10-11T19:51:55.218Z,99396.47
2022-10-11T19:54:23.581Z,99401.94
2022-10-11T19:56:51.567Z,99406.09
2022-10-11T19:59:19.813Z,99404.28
2022-10-11T20:01:52.332Z,99401.59
2022-10-11T20:04:50.686Z,99396.25
2022-10-11T20:07:11.440Z,99393.13
2022-10-11T20:09:39.425Z,99400.53
2022-10-11T20:12:07.877Z,99392.63
2022-10-11T20:14:35.880Z,99409.97
2022-10-11T20:17:03.926Z,99409.88
2022-10-11T20:19:33.343Z,99408.19
2022-10-11T20:22:01.733Z,99398.81
2022-10-11T20:24:33.620Z,99389.13
2022-10-11T20:27:03.069Z,99398.22
2022-10-11T20:29:31.089Z,99399.81
2022-10-11T20:31:59.856Z,99401.84
2022-10-11T20:34:28.451Z,99397.00
2022-10-11T20:36:57.903Z,99401.75
2022-10-11T20:39:26.091Z,99409.88
2022-10-11T20:41:54.052Z,99404.31
2022-10-11T20:44:22.019Z,99413.38
2022-10-11T20:46:49.982Z,99396.50
2022-10-11T20:49:19.970Z,99393.13
2022-10-11T20:51:48.143Z,99418.34
2022-10-11T20:54:18.107Z,99426.97
2022-10-11T20:56:46.254Z,99388.88
2022-10-11T20:59:14.218Z,99418.88
2022-10-11T21:01:42.594Z,99412.06
2022-10-11T21:04:17.773Z,99417.75
2022-10-11T21:06:45.903Z,99416.66
2022-10-11T21:09:16.402Z,99407.06
2022-10-11T21:11:46.879Z,99369.59
2022-10-11T21:14:15.046Z,99417.41
2022-10-11T21:16:43.290Z,99406.72
2022-10-11T21:19:16.346Z,99419.34
2022-10-11T21:21:50.992Z,99422.38
2022-10-11T21:24:21.543Z,99419.34
2022-10-11T21:26:50.980Z,99408.28
2022-10-11T21:29:19.257Z,99410.47
2022-10-11T21:31:47.215Z,99403.44
2022-10-11T21:34:15.677Z,99417.88
2022-10-11T21:36:43.731Z,99409.38
2022-10-11T21:39:11.710Z,99419.59
2022-10-11T21:41:42.195Z,99403.66
2022-10-11T21:44:11.723Z,99362.28
2022-10-11T21:47:05.610Z,99412.41
2022-10-11T21:49:27.642Z,99411.09
2022-10-11T21:51:56.095Z,99403.44
2022-10-11T21:54:24.085Z,99400.25
2022-10-11T21:56:52.007Z,99416.91
2022-10-11T21:59:22.595Z,99413.41
2022-10-11T22:01:50.567Z,99418.03
2022-10-11T22:04:18.623Z,99416.56
2022-10-11T22:06:46.596Z,99410.13
2022-10-11T22:09:14.621Z,99400.16
2022-10-11T22:11:42.592Z,99402.34
2022-10-11T22:14:10.772Z,99407.94
2022-10-11T22:16:40.459Z,99398.69
2022-10-11T22:19:08.732Z,99403.94
2022-10-11T22:21:39.171Z,99355.63
2022-10-11T22:24:12.740Z,99348.94
2022-10-11T22:27:12.322Z,99363.63
2022-10-11T22:29:34.356Z,99308.88
2022-10-11T22:32:04.111Z,99356.06
2022-10-11T22:34:33.440Z,99380.56
2022-10-11T22:37:09.052Z,99409.22
2022-10-11T22:39:37.194Z,99304.56
2022-10-11T22:42:05.508Z,99359.19
2022-10-11T22:47:35.602Z,99309.84
2022-10-11T22:50:06.159Z,99341.97
2022-10-11T22:52:34.324Z,99370.00
2022-10-11T22:55:02.428Z,99312.81
2022-10-11T22:57:30.831Z,99402.09
2022-10-11T22:59:58.879Z,99404.19
2022-10-11T23:02:26.949Z,99397.34
2022-10-11T23:04:56.894Z,99344.41
2022-10-11T23:07:25.036Z,99387.88
2022-10-11T23:09:53.077Z,99312.63
2022-10-11T23:12:21.221Z,99362.53
2022-10-11T23:14:49.385Z,99397.84
2022-10-11T23:17:17.498Z,99363.81
2022-10-11T23:19:45.555Z,99332.84
2022-10-11T23:22:15.456Z,99310.13
2022-10-11T23:24:43.521Z,99370.88
2022-10-11T23:27:11.614Z,99337.28
2022-10-11T23:29:41.154Z,99365.03
2022-10-11T23:32:10.117Z,99376.84
2022-10-11T23:34:38.293Z,99388.56
2022-10-11T23:37:06.852Z,99364.53
2022-10-11T23:39:36.326Z,99322.34
2022-10-11T23:42:04.386Z,99379.94
2022-10-11T23:44:32.480Z,99360.69
2022-10-11T23:47:00.528Z,99378.72
2022-10-11T23:49:28.606Z,99393.22
2022-10-11T23:51:57.343Z,99389.94
2022-10-11T23:54:25.433Z,99336.19
2022-10-11T23:56:54.852Z,99371.28
2022-10-11T23:59:22.989Z,99316.78
